sensor_id;sensor_type;location;lat;lon;timestamp;pressure;altitude;pressure_sealevel;temperature;humidity
81511;BME280;70931;48.796;8.440;2024-02-04T00:00:30;98359.19;;;7.82;79.82
81511;BME280;70931;48.796;8.440;2024-02-04T00:02:55;98364.88;;;7.88;79.91
81511;BME280;70931;48.796;8.440;2024-02-04T00:05:20;98365.22;;;7.84;80.42
81511;BME280;70931;48.796;8.440;2024-02-04T00:07:46;98379.66;;;7.59;81.33
81511;BME280;70931;48.796;8.440;2024-02-04T00:10:11;98344.09;;;7.51;82.08
81511;BME280;70931;48.796;8.440;2024-02-04T00:12:37;98332.72;;;7.60;82.16
81511;BME280;70931;48.796;8.440;2024-02-04T00:15:02;98337.66;;;7.64;82.21
81511;BME280;70931;48.796;8.440;2024-02-04T00:17:27;98312.91;;;7.64;82.22
81511;BME280;70931;48.796;8.440;2024-02-04T00:19:53;98317.47;;;7.73;82.07
81511;BME280;70931;48.796;8.440;2024-02-04T00:22:18;98318.00;;;7.56;82.40
81511;BME280;70931;48.796;8.440;2024-02-04T00:24:43;98321.38;;;7.69;81.55
81511;BME280;70931;48.796;8.440;2024-02-04T00:27:08;98318.66;;;7.80;81.65
81511;BME280;70931;48.796;8.440;2024-02-04T00:29:34;98304.50;;;7.59;81.83
81511;BME280;70931;48.796;8.440;2024-02-04T00:31:59;98305.19;;;7.72;81.77
81511;BME280;70931;48.796;8.440;2024-02-04T00:34:24;98316.47;;;7.85;81.02
81511;BME280;70931;48.796;8.440;2024-02-04T00:36:49;98299.38;;;7.67;80.95
81511;BME280;70931;48.796;8.440;2024-02-04T00:39:14;98297.22;;;7.61;81.21
81511;BME280;70931;48.796;8.440;2024-02-04T00:41:40;98288.56;;;7.59;81.48
81511;BME280;70931;48.796;8.440;2024-02-04T00:44:05;98299.63;;;7.75;80.96
81511;BME280;70931;48.796;8.440;2024-02-04T00:46:30;98310.66;;;7.91;80.03
81511;BME280;70931;48.796;8.440;2024-02-04T00:48:55;98315.63;;;7.84;80.60
81511;BME280;70931;48.796;8.440;2024-02-04T00:51:21;98321.06;;;7.83;80.13
81511;BME280;70931;48.796;8.440;2024-02-04T00:53:46;98321.97;;;7.93;79.94
81511;BME280;70931;48.796;8.440;2024-02-04T00:56:12;98309.38;;;8.06;79.48
81511;BME280;70931;48.796;8.440;2024-02-04T00:58:40;98330.88;;;7.71;80.60
81511;BME280;70931;48.796;8.440;2024-02-04T01:01:05;98324.03;;;7.89;80.41
81511;BME280;70931;48.796;8.440;2024-02-04T01:03:31;98315.44;;;7.97;80.00
81511;BME280;70931;48.796;8.440;2024-02-04T01:05:56;98316.66;;;7.93;80.16
81511;BME280;70931;48.796;8.440;2024-02-04T01:08:21;98289.66;;;7.88;80.08
81511;BME280;70931;48.796;8.440;2024-02-04T01:10:47;98310.59;;;8.02;80.08
81511;BME280;70931;48.796;8.440;2024-02-04T01:13:12;98293.72;;;7.71;80.81
81511;BME280;70931;48.796;8.440;2024-02-04T01:15:38;98294.50;;;7.83;80.31
81511;BME280;70931;48.796;8.440;2024-02-04T01:18:03;98296.47;;;8.01;79.91
81511;BME280;70931;48.796;8.440;2024-02-04T01:20:28;98297.47;;;7.89;80.16
81511;BME280;70931;48.796;8.440;2024-02-04T01:22:53;98310.38;;;7.94;80.03
81511;BME280;70931;48.796;8.440;2024-02-04T01:25:19;98307.53;;;7.86;80.46
81511;BME280;70931;48.796;8.440;2024-02-04T01:27:44;98250.94;;;7.54;79.63
81511;BME280;70931;48.796;8.440;2024-02-04T01:30:09;98298.84;;;7.84;79.86
81511;BME280;70931;48.796;8.440;2024-02-04T01:32:35;98294.47;;;7.94;79.65
81511;BME280;70931;48.796;8.440;2024-02-04T01:35:00;98300.38;;;7.97;79.90
81511;BME280;70931;48.796;8.440;2024-02-04T01:37:25;98306.66;;;8.17;78.95
81511;BME280;70931;48.796;8.440;2024-02-04T01:39:50;98326.97;;;8.07;79.36
81511;BME280;70931;48.796;8.440;2024-02-04T01:42:16;98310.84;;;7.99;79.75
81511;BME280;70931;48.796;8.440;2024-02-04T01:44:41;98324.88;;;7.90;79.61
81511;BME280;70931;48.796;8.440;2024-02-04T01:47:06;98313.56;;;7.88;79.81
81511;BME280;70931;48.796;8.440;2024-02-04T01:49:31;98318.03;;;8.08;79.18
81511;BME280;70931;48.796;8.440;2024-02-04T01:51:57;98306.72;;;8.06;79.05
81511;BME280;70931;48.796;8.440;2024-02-04T01:54:23;98305.53;;;7.99;79.56
81511;BME280;70931;48.796;8.440;2024-02-04T01:56:50;98298.78;;;8.16;79.45
81511;BME280;70931;48.796;8.440;2024-02-04T01:59:17;98262.16;;;7.78;79.61
81511;BME280;70931;48.796;8.440;2024-02-04T02:01:43;98323.00;;;8.33;78.92
81511;BME280;70931;48.796;8.440;2024-02-04T02:04:08;98320.69;;;8.08;79.69
81511;BME280;70931;48.796;8.440;2024-02-04T02:06:33;98298.00;;;7.83;80.56
81511;BME280;70931;48.796;8.440;2024-02-04T02:09:01;98321.38;;;7.89;80.53
81511;BME280;70931;48.796;8.440;2024-02-04T02:11:38;98314.25;;;7.90;80.17
81511;BME280;70931;48.796;8.440;2024-02-04T02:14:06;98327.47;;;7.80;81.09
81511;BME280;70931;48.796;8.440;2024-02-04T02:16:34;98314.84;;;7.93;80.15
81511;BME280;70931;48.796;8.440;2024-02-04T02:19:07;98325.88;;;7.78;81.00
81511;BME280;70931;48.796;8.440;2024-02-04T02:21:56;98319.25;;;7.83;80.84
81511;BME280;70931;48.796;8.440;2024-02-04T02:24:35;98334.59;;;7.80;81.21
81511;BME280;70931;48.796;8.440;2024-02-04T02:27:01;98334.13;;;7.75;81.52
81511;BME280;70931;48.796;8.440;2024-02-04T02:29:26;98335.44;;;7.80;81.44
81511;BME280;70931;48.796;8.440;2024-02-04T02:31:51;98326.72;;;7.46;82.51
81511;BME280;70931;48.796;8.440;2024-02-04T02:34:16;98327.34;;;7.82;81.08
81511;BME280;70931;48.796;8.440;2024-02-04T02:36:50;98338.63;;;7.95;81.10
81511;BME280;70931;48.796;8.440;2024-02-04T02:39:18;98316.31;;;7.66;81.62
81511;BME280;70931;48.796;8.440;2024-02-04T02:41:49;98312.91;;;7.64;81.71
81511;BME280;70931;48.796;8.440;2024-02-04T02:44:15;98319.47;;;7.60;81.89
81511;BME280;70931;48.796;8.440;2024-02-04T02:46:41;98307.31;;;7.78;81.79
81511;BME280;70931;48.796;8.440;2024-02-04T02:49:07;98315.56;;;7.75;82.24
81511;BME280;70931;48.796;8.440;2024-02-04T02:51:32;98307.84;;;7.61;81.55
81511;BME280;70931;48.796;8.440;2024-02-04T02:53:57;98305.72;;;7.43;82.37
81511;BME280;70931;48.796;8.440;2024-02-04T02:56:23;98324.25;;;7.23;83.99
81511;BME280;70931;48.796;8.440;2024-02-04T02:58:48;98319.00;;;7.55;82.85
81511;BME280;70931;48.796;8.440;2024-02-04T03:01:13;98302.38;;;7.41;83.39
81511;BME280;70931;48.796;8.440;2024-02-04T03:03:38;98314.44;;;7.45;83.10
81511;BME280;70931;48.796;8.440;2024-02-04T03:06:04;98309.91;;;7.25;83.20
81511;BME280;70931;48.796;8.440;2024-02-04T03:08:29;98314.47;;;7.34;82.89
81511;BME280;70931;48.796;8.440;2024-02-04T03:10:54;98320.69;;;7.44;82.97
81511;BME280;70931;48.796;8.440;2024-02-04T03:13:19;98310.25;;;7.75;81.60
81511;BME280;70931;48.796;8.440;2024-02-04T03:15:44;98315.34;;;7.56;81.10
81511;BME280;70931;48.796;8.440;2024-02-04T03:18:10;98303.53;;;7.60;80.85
81511;BME280;70931;48.796;8.440;2024-02-04T03:20:36;98306.50;;;7.98;79.84
81511;BME280;70931;48.796;8.440;2024-02-04T03:23:01;98296.56;;;7.79;79.94
81511;BME280;70931;48.796;8.440;2024-02-04T03:25:26;98299.81;;;7.83;79.69
81511;BME280;70931;48.796;8.440;2024-02-04T03:27:52;98276.94;;;7.71;79.79
81511;BME280;70931;48.796;8.440;2024-02-04T03:30:17;98281.19;;;7.94;79.10
81511;BME280;70931;48.796;8.440;2024-02-04T03:32:42;98289.97;;;7.74;79.71
81511;BME280;70931;48.796;8.440;2024-02-04T03:35:08;98263.09;;;7.88;78.84
81511;BME280;70931;48.796;8.440;2024-02-04T03:37:33;98269.44;;;7.96;78.40
81511;BME280;70931;48.796;8.440;2024-02-04T03:39:58;98277.28;;;8.19;77.88
81511;BME280;70931;48.796;8.440;2024-02-04T03:42:23;98256.75;;;8.00;78.05
81511;BME280;70931;48.796;8.440;2024-02-04T03:44:48;98266.97;;;7.84;78.64
81511;BME280;70931;48.796;8.440;2024-02-04T03:47:14;98237.75;;;7.84;77.96
81511;BME280;70931;48.796;8.440;2024-02-04T03:49:39;98263.22;;;8.07;77.46
81511;BME280;70931;48.796;8.440;2024-02-04T03:52:05;98259.41;;;8.00;77.39
81511;BME280;70931;48.796;8.440;2024-02-04T03:54:30;98275.47;;;8.19;76.55
81511;BME280;70931;48.796;8.440;2024-02-04T03:56:55;98278.38;;;7.75;78.43
81511;BME280;70931;48.796;8.440;2024-02-04T03:59:21;98268.16;;;7.91;77.88
81511;BME280;70931;48.796;8.440;2024-02-04T04:01:49;98264.66;;;8.11;77.28
81511;BME280;70931;48.796;8.440;2024-02-04T04:04:15;98246.25;;;8.19;76.64
81511;BME280;70931;48.796;8.440;2024-02-04T04:06:42;98273.53;;;8.00;76.92
81511;BME280;70931;48.796;8.440;2024-02-04T04:09:07;98281.81;;;8.07;77.19
81511;BME280;70931;48.796;8.440;2024-02-04T04:11:33;98281.22;;;8.24;76.19
81511;BME280;70931;48.796;8.440;2024-02-04T04:13:58;98276.69;;;8.15;76.62
81511;BME280;70931;48.796;8.440;2024-02-04T04:16:23;98269.19;;;8.20;76.28
81511;BME280;70931;48.796;8.440;2024-02-04T04:18:48;98259.59;;;8.08;76.39
81511;BME280;70931;48.796;8.440;2024-02-04T04:21:14;98268.53;;;8.07;76.62
81511;BME280;70931;48.796;8.440;2024-02-04T04:23:39;98270.38;;;8.27;75.97
81511;BME280;70931;48.796;8.440;2024-02-04T04:26:04;98264.97;;;8.18;76.16
81511;BME280;70931;48.796;8.440;2024-02-04T04:28:29;98284.09;;;8.12;76.17
81511;BME280;70931;48.796;8.440;2024-02-04T04:30:55;98271.13;;;8.18;76.08
81511;BME280;70931;48.796;8.440;2024-02-04T04:33:20;98251.66;;;8.29;76.93
81511;BME280;70931;48.796;8.440;2024-02-04T04:35:45;98284.41;;;8.59;75.31
81511;BME280;70931;48.796;8.440;2024-02-04T04:38:10;98266.50;;;8.31;75.63
81511;BME280;70931;48.796;8.440;2024-02-04T04:40:36;98260.75;;;8.15;75.24
81511;BME280;70931;48.796;8.440;2024-02-04T04:43:01;98286.09;;;8.19;75.97
81511;BME280;70931;48.796;8.440;2024-02-04T04:45:26;98282.47;;;8.41;74.93
81511;BME280;70931;48.796;8.440;2024-02-04T04:47:51;98284.28;;;8.20;75.13
81511;BME280;70931;48.796;8.440;2024-02-04T04:50:17;98276.59;;;8.37;75.03
81511;BME280;70931;48.796;8.440;2024-02-04T04:52:42;98275.91;;;8.66;74.13
81511;BME280;70931;48.796;8.440;2024-02-04T04:55:07;98268.03;;;8.64;74.42
81511;BME280;70931;48.796;8.440;2024-02-04T04:57:33;98271.16;;;8.69;74.04
81511;BME280;70931;48.796;8.440;2024-02-04T04:59:58;98266.09;;;8.66;73.84
81511;BME280;70931;48.796;8.440;2024-02-04T05:02:23;98195.06;;;8.17;73.83
81511;BME280;70931;48.796;8.440;2024-02-04T05:04:48;98273.63;;;8.61;73.52
81511;BME280;70931;48.796;8.440;2024-02-04T05:07:14;98264.72;;;8.41;73.85
81511;BME280;70931;48.796;8.440;2024-02-04T05:09:39;98272.28;;;8.67;73.61
81511;BME280;70931;48.796;8.440;2024-02-04T05:12:05;98248.94;;;8.80;72.63
81511;BME280;70931;48.796;8.440;2024-02-04T05:14:31;98255.06;;;8.40;73.94
81511;BME280;70931;48.796;8.440;2024-02-04T05:16:56;98258.84;;;8.27;73.41
81511;BME280;70931;48.796;8.440;2024-02-04T05:19:21;98283.84;;;8.35;74.25
81511;BME280;70931;48.796;8.440;2024-02-04T05:21:47;98271.84;;;8.41;74.29
81511;BME280;70931;48.796;8.440;2024-02-04T05:24:12;98283.44;;;8.61;73.42
81511;BME280;70931;48.796;8.440;2024-02-04T05:26:37;98260.13;;;8.43;73.93
81511;BME280;70931;48.796;8.440;2024-02-04T05:29:02;98298.63;;;8.49;73.90
81511;BME280;70931;48.796;8.440;2024-02-04T05:31:27;98292.22;;;8.31;74.30
81511;BME280;70931;48.796;8.440;2024-02-04T05:33:53;98292.06;;;8.32;73.86
81511;BME280;70931;48.796;8.440;2024-02-04T05:36:18;98286.19;;;8.29;73.66
81511;BME280;70931;48.796;8.440;2024-02-04T05:38:45;98290.72;;;8.17;74.08
81511;BME280;70931;48.796;8.440;2024-02-04T05:41:10;98300.97;;;8.42;73.67
81511;BME280;70931;48.796;8.440;2024-02-04T05:43:35;98296.25;;;8.55;73.95
81511;BME280;70931;48.796;8.440;2024-02-04T05:46:01;98284.56;;;8.68;73.42
81511;BME280;70931;48.796;8.440;2024-02-04T05:48:26;98288.09;;;8.47;73.47
81511;BME280;70931;48.796;8.440;2024-02-04T05:50:51;98303.19;;;8.37;73.54
81511;BME280;70931;48.796;8.440;2024-02-04T05:53:16;98292.53;;;8.37;73.17
81511;BME280;70931;48.796;8.440;2024-02-04T05:55:42;98289.09;;;8.46;73.35
81511;BME280;70931;48.796;8.440;2024-02-04T05:58:07;98298.53;;;8.60;73.06
81511;BME280;70931;48.796;8.440;2024-02-04T06:00:32;98303.53;;;8.53;73.33
81511;BME280;70931;48.796;8.440;2024-02-04T06:02:57;98290.22;;;8.12;74.01
81511;BME280;70931;48.796;8.440;2024-02-04T06:05:22;98268.19;;;8.21;73.94
81511;BME280;70931;48.796;8.440;2024-02-04T06:07:48;98273.63;;;8.31;73.08
81511;BME280;70931;48.796;8.440;2024-02-04T06:10:13;98283.84;;;8.35;73.43
81511;BME280;70931;48.796;8.440;2024-02-04T06:12:38;98285.63;;;8.55;72.74
81511;BME280;70931;48.796;8.440;2024-02-04T06:15:04;98286.50;;;8.35;73.29
81511;BME280;70931;48.796;8.440;2024-02-04T06:17:29;98283.25;;;8.11;73.93
81511;BME280;70931;48.796;8.440;2024-02-04T06:19:55;98294.88;;;8.51;73.31
81511;BME280;70931;48.796;8.440;2024-02-04T06:22:20;98301.03;;;8.31;73.43
81511;BME280;70931;48.796;8.440;2024-02-04T06:24:45;98288.44;;;8.54;72.85
81511;BME280;70931;48.796;8.440;2024-02-04T06:27:11;98307.19;;;8.32;73.41
81511;BME280;70931;48.796;8.440;2024-02-04T06:29:36;98301.03;;;8.31;73.40
81511;BME280;70931;48.796;8.440;2024-02-04T06:32:01;98329.94;;;8.45;73.65
81511;BME280;70931;48.796;8.440;2024-02-04T06:34:27;98334.25;;;8.05;74.79
81511;BME280;70931;48.796;8.440;2024-02-04T06:36:52;98321.50;;;8.20;73.81
81511;BME280;70931;48.796;8.440;2024-02-04T06:39:17;98313.19;;;8.13;74.23
81511;BME280;70931;48.796;8.440;2024-02-04T06:41:42;98322.63;;;8.38;73.99
81511;BME280;70931;48.796;8.440;2024-02-04T06:44:07;98306.16;;;8.12;73.99
81511;BME280;70931;48.796;8.440;2024-02-04T06:46:33;98338.94;;;8.33;74.15
81511;BME280;70931;48.796;8.440;2024-02-04T06:48:58;98318.91;;;8.09;74.71
81511;BME280;70931;48.796;8.440;2024-02-04T06:51:23;98324.25;;;8.29;73.80
81511;BME280;70931;48.796;8.440;2024-02-04T06:53:49;98327.75;;;8.19;74.27
81511;BME280;70931;48.796;8.440;2024-02-04T06:56:14;98314.69;;;8.47;73.46
81511;BME280;70931;48.796;8.440;2024-02-04T06:58:40;98289.72;;;8.29;73.79
81511;BME280;70931;48.796;8.440;2024-02-04T07:01:05;98322.03;;;8.34;74.34
81511;BME280;70931;48.796;8.440;2024-02-04T07:03:31;98307.34;;;8.19;74.94
81511;BME280;70931;48.796;8.440;2024-02-04T07:05:57;98308.03;;;8.32;74.67
81511;BME280;70931;48.796;8.440;2024-02-04T07:08:23;98315.06;;;8.22;74.63
81511;BME280;70931;48.796;8.440;2024-02-04T07:10:48;98296.94;;;8.27;74.53
81511;BME280;70931;48.796;8.440;2024-02-04T07:13:14;98305.56;;;8.40;74.41
81511;BME280;70931;48.796;8.440;2024-02-04T07:15:39;98314.81;;;8.25;74.89
81511;BME280;70931;48.796;8.440;2024-02-04T07:18:04;98303.34;;;8.25;75.24
81511;BME280;70931;48.796;8.440;2024-02-04T07:20:30;98311.38;;;8.14;75.20
81511;BME280;70931;48.796;8.440;2024-02-04T07:22:55;98299.91;;;8.13;75.23
81511;BME280;70931;48.796;8.440;2024-02-04T07:25:20;98305.13;;;8.03;75.50
81511;BME280;70931;48.796;8.440;2024-02-04T07:27:46;98314.00;;;7.93;76.34
81511;BME280;70931;48.796;8.440;2024-02-04T07:30:11;98307.88;;;8.13;75.89
81511;BME280;70931;48.796;8.440;2024-02-04T07:32:37;98304.06;;;8.06;76.04
81511;BME280;70931;48.796;8.440;2024-02-04T07:35:02;98301.50;;;8.04;76.18
81511;BME280;70931;48.796;8.440;2024-02-04T07:37:28;98314.47;;;7.98;76.79
81511;BME280;70931;48.796;8.440;2024-02-04T07:39:53;98286.34;;;7.95;76.78
81511;BME280;70931;48.796;8.440;2024-02-04T07:42:18;98301.63;;;8.24;76.18
81511;BME280;70931;48.796;8.440;2024-02-04T07:44:43;98300.34;;;8.29;76.02
81511;BME280;70931;48.796;8.440;2024-02-04T07:47:08;98288.06;;;8.17;76.20
81511;BME280;70931;48.796;8.440;2024-02-04T07:49:34;98293.47;;;8.16;76.55
81511;BME280;70931;48.796;8.440;2024-02-04T07:51:59;98294.59;;;8.13;77.18
81511;BME280;70931;48.796;8.440;2024-02-04T07:54:24;98290.19;;;8.02;76.86
81511;BME280;70931;48.796;8.440;2024-02-04T07:56:49;98274.00;;;8.26;76.14
81511;BME280;70931;48.796;8.440;2024-02-04T07:59:15;98271.53;;;8.34;76.34
81511;BME280;70931;48.796;8.440;2024-02-04T08:01:40;98282.56;;;8.09;76.55
81511;BME280;70931;48.796;8.440;2024-02-04T08:04:05;98276.44;;;8.18;76.07
81511;BME280;70931;48.796;8.440;2024-02-04T08:06:30;98291.16;;;8.22;75.87
81511;BME280;70931;48.796;8.440;2024-02-04T08:08:56;98282.56;;;8.09;76.40
81511;BME280;70931;48.796;8.440;2024-02-04T08:11:21;98277.50;;;8.06;76.54
81511;BME280;70931;48.796;8.440;2024-02-04T08:13:46;98282.16;;;8.14;75.82
81511;BME280;70931;48.796;8.440;2024-02-04T08:16:12;98291.00;;;8.35;75.22
81511;BME280;70931;48.796;8.440;2024-02-04T08:18:37;98283.28;;;8.32;75.20
81511;BME280;70931;48.796;8.440;2024-02-04T08:21:03;98278.53;;;8.35;75.08
81511;BME280;70931;48.796;8.440;2024-02-04T08:23:28;98290.97;;;8.14;75.18
81511;BME280;70931;48.796;8.440;2024-02-04T08:25:53;98293.19;;;8.09;74.97
81511;BME280;70931;48.796;8.440;2024-02-04T08:28:19;98258.16;;;8.04;74.84
81511;BME280;70931;48.796;8.440;2024-02-04T08:30:44;98288.44;;;8.33;74.20
81511;BME280;70931;48.796;8.440;2024-02-04T08:33:09;98281.97;;;8.26;73.90
81511;BME280;70931;48.796;8.440;2024-02-04T08:35:34;98292.69;;;8.25;73.86
81511;BME280;70931;48.796;8.440;2024-02-04T08:38:00;98293.44;;;8.06;74.16
81511;BME280;70931;48.796;8.440;2024-02-04T08:40:25;98265.25;;;8.15;73.65
81511;BME280;70931;48.796;8.440;2024-02-04T08:42:50;98284.09;;;8.32;72.83
81511;BME280;70931;48.796;8.440;2024-02-04T08:45:15;98308.72;;;8.14;73.47
81511;BME280;70931;48.796;8.440;2024-02-04T08:47:40;98267.81;;;8.26;73.46
81511;BME280;70931;48.796;8.440;2024-02-04T08:50:06;98281.13;;;8.46;72.59
81511;BME280;70931;48.796;8.440;2024-02-04T08:52:32;98278.72;;;8.74;71.69
81511;BME280;70931;48.796;8.440;2024-02-04T08:54:57;98281.66;;;8.40;72.38
81511;BME280;70931;48.796;8.440;2024-02-04T08:57:23;98247.75;;;8.33;72.52
81511;BME280;70931;48.796;8.440;2024-02-04T08:59:48;98283.78;;;8.46;72.30
81511;BME280;70931;48.796;8.440;2024-02-04T09:02:13;98277.22;;;8.50;71.76
81511;BME280;70931;48.796;8.440;2024-02-04T09:04:38;98266.59;;;8.50;71.59
81511;BME280;70931;48.796;8.440;2024-02-04T09:07:04;98277.28;;;8.60;71.42
81511;BME280;70931;48.796;8.440;2024-02-04T09:09:29;98287.38;;;8.66;71.17
81511;BME280;70931;48.796;8.440;2024-02-04T09:11:54;98285.88;;;8.52;71.54
81511;BME280;70931;48.796;8.440;2024-02-04T09:14:19;98289.88;;;8.68;71.02
81511;BME280;70931;48.796;8.440;2024-02-04T09:16:45;98295.22;;;8.68;70.75
81511;BME280;70931;48.796;8.440;2024-02-04T09:19:10;98267.22;;;8.64;70.58
81511;BME280;70931;48.796;8.440;2024-02-04T09:21:35;98293.88;;;8.52;70.97
81511;BME280;70931;48.796;8.440;2024-02-04T09:24:00;98287.47;;;8.55;70.71
81511;BME280;70931;48.796;8.440;2024-02-04T09:26:25;98248.88;;;8.61;70.28
81511;BME280;70931;48.796;8.440;2024-02-04T09:28:51;98308.69;;;8.76;70.67
81511;BME280;70931;48.796;8.440;2024-02-04T09:31:16;98304.72;;;8.61;70.60
81511;BME280;70931;48.796;8.440;2024-02-04T09:33:41;98311.50;;;8.53;70.85
81511;BME280;70931;48.796;8.440;2024-02-04T09:36:06;98293.66;;;8.65;70.11
81511;BME280;70931;48.796;8.440;2024-02-04T09:38:32;98322.59;;;8.58;70.64
81511;BME280;70931;48.796;8.440;2024-02-04T09:40:57;98324.03;;;8.63;70.64
81511;BME280;70931;48.796;8.440;2024-02-04T09:43:23;98338.81;;;8.55;70.66
81511;BME280;70931;48.796;8.440;2024-02-04T09:45:49;98338.53;;;8.58;70.32
81511;BME280;70931;48.796;8.440;2024-02-04T09:48:17;98319.03;;;8.69;70.22
81511;BME280;70931;48.796;8.440;2024-02-04T09:50:43;98323.38;;;9.00;69.56
81511;BME280;70931;48.796;8.440;2024-02-04T09:53:09;98319.63;;;9.12;68.79
81511;BME280;70931;48.796;8.440;2024-02-04T09:55:38;98318.13;;;9.29;69.39
81511;BME280;70931;48.796;8.440;2024-02-04T09:58:04;98287.00;;;9.20;68.59
81511;BME280;70931;48.796;8.440;2024-02-04T10:00:30;98292.63;;;8.87;69.40
81511;BME280;70931;48.796;8.440;2024-02-04T10:02:58;98272.13;;;9.08;69.43
81511;BME280;70931;48.796;8.440;2024-02-04T10:05:23;98276.97;;;8.84;69.73
81511;BME280;70931;48.796;8.440;2024-02-04T10:07:49;98273.81;;;9.09;68.79
81511;BME280;70931;48.796;8.440;2024-02-04T10:10:14;98269.06;;;9.12;68.39
81511;BME280;70931;48.796;8.440;2024-02-04T10:12:40;98261.47;;;9.08;68.73
81511;BME280;70931;48.796;8.440;2024-02-04T10:15:05;98258.97;;;9.16;68.58
81511;BME280;70931;48.796;8.440;2024-02-04T10:17:31;98264.56;;;9.13;68.64
81511;BME280;70931;48.796;8.440;2024-02-04T10:19:56;98265.72;;;9.20;68.44
81511;BME280;70931;48.796;8.440;2024-02-04T10:22:22;98279.16;;;9.18;68.13
81511;BME280;70931;48.796;8.440;2024-02-04T10:24:47;98283.06;;;9.24;67.91
81511;BME280;70931;48.796;8.440;2024-02-04T10:27:12;98231.19;;;8.90;68.80
81511;BME280;70931;48.796;8.440;2024-02-04T10:29:38;98264.69;;;8.92;69.06
81511;BME280;70931;48.796;8.440;2024-02-04T10:32:03;98295.13;;;8.79;69.88
81511;BME280;70931;48.796;8.440;2024-02-04T10:34:28;98289.16;;;8.96;69.29
81511;BME280;70931;48.796;8.440;2024-02-04T10:36:54;98300.84;;;8.74;70.08
81511;BME280;70931;48.796;8.440;2024-02-04T10:39:19;98301.53;;;8.67;69.91
81511;BME280;70931;48.796;8.440;2024-02-04T10:41:52;98282.72;;;8.89;69.64
81511;BME280;70931;48.796;8.440;2024-02-04T10:44:21;98293.47;;;8.87;69.12
81511;BME280;70931;48.796;8.440;2024-02-04T10:46:47;98287.50;;;8.95;69.56
81511;BME280;70931;48.796;8.440;2024-02-04T10:49:14;98292.97;;;9.03;68.97
81511;BME280;70931;48.796;8.440;2024-02-04T10:51:41;98279.69;;;9.03;68.41
81511;BME280;70931;48.796;8.440;2024-02-04T10:54:07;98280.16;;;8.78;69.30
81511;BME280;70931;48.796;8.440;2024-02-04T10:56:41;98283.19;;;8.64;69.72
81511;BME280;70931;48.796;8.440;2024-02-04T10:59:07;98303.13;;;8.58;69.82
81511;BME280;70931;48.796;8.440;2024-02-04T11:01:33;98280.84;;;8.49;70.27
81511;BME280;70931;48.796;8.440;2024-02-04T11:03:59;98277.22;;;8.50;69.69
81511;BME280;70931;48.796;8.440;2024-02-04T11:06:26;98266.50;;;8.31;71.26
81511;BME280;70931;48.796;8.440;2024-02-04T11:08:51;98284.66;;;8.56;70.31
81511;BME280;70931;48.796;8.440;2024-02-04T11:11:18;98287.22;;;8.68;69.69
81511;BME280;70931;48.796;8.440;2024-02-04T11:13:45;98302.31;;;8.88;68.99
81511;BME280;70931;48.796;8.440;2024-02-04T11:16:40;98318.06;;;8.49;70.14
81511;BME280;70931;48.796;8.440;2024-02-04T11:27:32;98260.53;;;8.69;70.03
81511;BME280;70931;48.796;8.440;2024-02-04T11:29:58;98268.00;;;8.54;70.12
81511;BME280;70931;48.796;8.440;2024-02-04T11:32:26;98254.09;;;8.72;69.88
81511;BME280;70931;48.796;8.440;2024-02-04T11:34:53;98254.69;;;8.75;69.84
81511;BME280;70931;48.796;8.440;2024-02-04T11:37:19;98215.53;;;8.56;69.85
81511;BME280;70931;48.796;8.440;2024-02-04T11:39:51;98230.69;;;8.66;70.21
81511;BME280;70931;48.796;8.440;2024-02-04T11:42:17;98200.19;;;8.70;69.48
81511;BME280;70931;48.796;8.440;2024-02-04T11:44:44;98244.34;;;8.91;69.67
81511;BME280;70931;48.796;8.440;2024-02-04T11:47:09;98224.22;;;9.08;69.44
81511;BME280;70931;48.796;8.440;2024-02-04T11:49:34;98218.63;;;9.11;68.64
81511;BME280;70931;48.796;8.440;2024-02-04T11:52:00;98223.19;;;8.90;69.33
81511;BME280;70931;48.796;8.440;2024-02-04T11:54:25;98214.56;;;9.16;68.95
81511;BME280;70931;48.796;8.440;2024-02-04T11:56:51;98214.72;;;9.15;69.28
81511;BME280;70931;48.796;8.440;2024-02-04T11:59:16;98175.78;;;8.95;69.40
81511;BME280;70931;48.796;8.440;2024-02-04T12:01:42;98206.03;;;9.23;68.86
81511;BME280;70931;48.796;8.440;2024-02-04T12:06:37;98211.53;;;9.21;68.67
81511;BME280;70931;48.796;8.440;2024-02-04T12:09:02;98198.50;;;9.18;69.01
81511;BME280;70931;48.796;8.440;2024-02-04T12:11:28;98204.84;;;8.87;70.07
81511;BME280;70931;48.796;8.440;2024-02-04T12:13:54;98191.59;;;9.06;69.28
81511;BME280;70931;48.796;8.440;2024-02-04T12:16:20;98191.75;;;9.14;69.20
81511;BME280;70931;48.796;8.440;2024-02-04T12:18:49;98183.75;;;9.04;69.50
81511;BME280;70931;48.796;8.440;2024-02-04T12:21:15;98188.06;;;8.96;69.92
81511;BME280;70931;48.796;8.440;2024-02-04T12:23:40;98191.72;;;9.04;70.08
81511;BME280;70931;48.796;8.440;2024-02-04T12:26:06;98194.13;;;8.98;70.07
81511;BME280;70931;48.796;8.440;2024-02-04T12:28:31;98204.75;;;9.07;70.04
81511;BME280;70931;48.796;8.440;2024-02-04T12:30:56;98200.69;;;8.94;70.89
81511;BME280;70931;48.796;8.440;2024-02-04T12:33:22;98186.41;;;8.95;70.54
81511;BME280;70931;48.796;8.440;2024-02-04T12:35:51;98176.69;;;8.84;71.16
81511;BME280;70931;48.796;8.440;2024-02-04T12:38:16;98183.91;;;9.03;71.12
81511;BME280;70931;48.796;8.440;2024-02-04T12:40:41;98136.97;;;8.33;72.50
81511;BME280;70931;48.796;8.440;2024-02-04T12:43:06;98189.91;;;8.55;72.46
81511;BME280;70931;48.796;8.440;2024-02-04T12:45:35;98212.34;;;8.63;72.17
81511;BME280;70931;48.796;8.440;2024-02-04T12:48:01;98202.78;;;8.50;72.84
81511;BME280;70931;48.796;8.440;2024-02-04T12:50:26;98180.41;;;8.53;72.58
81511;BME280;70931;48.796;8.440;2024-02-04T12:53:09;98160.28;;;8.70;72.20
81511;BME280;70931;48.796;8.440;2024-02-04T12:55:35;98162.59;;;8.84;71.74
81511;BME280;70931;48.796;8.440;2024-02-04T12:58:08;98149.00;;;8.87;71.19
81511;BME280;70931;48.796;8.440;2024-02-04T13:00:35;98161.44;;;8.77;71.78
81511;BME280;70931;48.796;8.440;2024-02-04T13:03:01;98158.34;;;8.81;71.64
81511;BME280;70931;48.796;8.440;2024-02-04T13:05:27;98153.44;;;8.57;72.08
81511;BME280;70931;48.796;8.440;2024-02-04T13:07:56;98128.41;;;8.79;71.39
81511;BME280;70931;48.796;8.440;2024-02-04T13:10:24;98159.25;;;9.10;71.04
81511;BME280;70931;48.796;8.440;2024-02-04T13:13:09;98178.69;;;9.01;71.17